Moby Aki — IBVV — position and weather

sailwx.info

Track history (hours):
 
Tides and Currents Weather Stations Pressure Air Temp Water Temp Dewpoint Dewpoint Depression Visibility Wind Speed Wind Dir Waves Ship Positions

Moby Aki

Last reported at 2014-Nov-26 20:33 UTC. Time now 2014-Nov-27 01:42 UTC.
Position N 40°56' E 009°36'.

Length 175 m; draft 6.9 m.

Type: Passenger vessel. MMSI: 247132400.

Date/timePositionNaut miles runAvg speedWind from/ knotsBaromVisibWave heightAir tempDewpointWater temp
2014-Nov-26 20:33N 40°56' E 009°36'4 3.7
2014-Nov-26 19:31N 40°55' E 009°31'0 0.0
2014-Nov-26 18:28N 40°55' E 009°31'0 0.0
2014-Nov-26 17:31N 40°55' E 009°31'0 0.0
2014-Nov-26 15:33N 40°55' E 009°31'0 0.0
2014-Nov-26 14:33N 40°55' E 009°31'0 0.0
2014-Nov-26 13:31N 40°55' E 009°31'0 0.0
2014-Nov-26 11:33N 40°55' E 009°31'0 0.0
2014-Nov-26 10:33N 40°55' E 009°31'0 0.0
2014-Nov-26 08:33N 40°55' E 009°31'0 0.0
2014-Nov-26 06:11N 40°55' E 009°31'4 6.3
2014-Nov-26 05:34N 40°56' E 009°36'12817.6
2014-Nov-25 22:17N 43°02' E 010°03'1317.7
2014-Nov-25 21:34N 43°15' E 010°07'1716.9
2014-Nov-25 20:34N 43°31' E 010°14'4 3.9
2014-Nov-25 19:33N 43°33' E 010°18'0 0.0
2014-Nov-25 18:33N 43°33' E 010°18'0 0.0
2014-Nov-25 17:33N 43°33' E 010°18'0 0.0
2014-Nov-25 16:33N 43°33' E 010°18'0 0.0
2014-Nov-25 15:33N 43°33' E 010°18'0 0.0
2014-Nov-25 14:33N 43°33' E 010°18'0 0.0
2014-Nov-25 13:34N 43°33' E 010°18'0 0.0
2014-Nov-25 12:34N 43°33' E 010°18'0 0.0
2014-Nov-25 11:33N 43°33' E 010°18'0 0.0
2014-Nov-25 10:33N 43°33' E 010°18'0 0.0
2014-Nov-25 09:33N 43°33' E 010°18'0 0.0
2014-Nov-25 08:33N 43°33' E 010°18'0 0.0
2014-Nov-25 07:33N 43°33' E 010°18'0 0.0
2014-Nov-25 06:33N 43°33' E 010°18'3 3.4
2014-Nov-25 05:33N 43°31' E 010°15'1717.1
2014-Nov-25 04:33N 43°14' E 010°09'13917.4
2014-Nov-24 20:34N 40°57' E 009°38'5 2.6
2014-Nov-24 18:28N 40°55' E 009°31'0 0.0
2014-Nov-24 16:22N 40°55' E 009°31'0 0.0
2014-Nov-24 15:29N 40°55' E 009°31'0 0.0
2014-Nov-24 13:33N 40°55' E 009°31'0 0.0
2014-Nov-24 09:15N 40°55' E 009°31'0 0.0
2014-Nov-24 08:33N 40°55' E 009°31'0 0.0
2014-Nov-24 06:30N 40°55' E 009°31'5 5.0
2014-Nov-24 05:33N 40°56' E 009°37'12217.3
2014-Nov-23 22:31N 42°57' E 010°02'1717.2
2014-Nov-23 21:34N 43°13' E 010°08'1818.0
2014-Nov-23 20:33N 43°31' E 010°13'4 4.4
2014-Nov-23 19:34N 43°33' E 010°18'0 0.0
2014-Nov-23 18:33N 43°33' E 010°18'0 0.0
2014-Nov-23 17:33N 43°33' E 010°18'0 0.0
2014-Nov-23 16:33N 43°33' E 010°18'0 0.0
2014-Nov-23 15:34N 43°33' E 010°18'0 0.0
2014-Nov-23 14:33N 43°33' E 010°18'0 0.0
2014-Nov-23 13:33N 43°33' E 010°18'0 0.0
2014-Nov-23 12:34N 43°33' E 010°18'0 0.0
2014-Nov-23 11:33N 43°33' E 010°18'0 0.0
2014-Nov-23 10:33N 43°33' E 010°18'0 0.0
2014-Nov-23 09:33N 43°33' E 010°18'0 0.0
2014-Nov-23 08:33N 43°33' E 010°18'0 0.0
2014-Nov-23 07:33N 43°33' E 010°18'0 0.0
2014-Nov-23 06:33N 43°33' E 010°18'4 3.7
2014-Nov-23 05:34N 43°30' E 010°14'1717.3
2014-Nov-23 04:34N 43°14' E 010°08'14017.5
2014-Nov-22 20:33N 40°55' E 009°35'3 1.3
2014-Nov-22 18:31N 40°55' E 009°31'0 0.0
2014-Nov-22 16:16N 40°55' E 009°31'0 0.0
2014-Nov-22 15:31N 40°55' E 009°31'0 0.0
2014-Nov-22 13:33N 40°55' E 009°31'0 0.0
2014-Nov-22 11:24N 40°55' E 009°31'0 0.0
2014-Nov-22 10:33N 40°55' E 009°31'0 0.0
2014-Nov-22 08:32N 40°55' E 009°31'0 0.0
2014-Nov-22 07:27N 40°55' E 009°31'0 0.0
2014-Nov-22 06:33N 40°55' E 009°31'4 4.0
2014-Nov-22 05:33N 40°56' E 009°36'12617.4
2014-Nov-21 22:20N 43°00' E 010°05'1317.2
2014-Nov-21 21:34N 43°14' E 010°08'1717.2
2014-Nov-21 20:34N 43°30' E 010°13'5 4.4
2014-Nov-21 19:32N 43°33' E 010°18'0 0.0
2014-Nov-21 18:32N 43°33' E 010°18'0 0.0
2014-Nov-21 17:31N 43°33' E 010°18'0 0.0
2014-Nov-21 16:31N 43°33' E 010°18'0 0.0
2014-Nov-21 15:31N 43°33' E 010°18'0 0.0
2014-Nov-21 14:31N 43°33' E 010°18'0 0.0
2014-Nov-21 13:33N 43°33' E 010°18'0 0.0
2014-Nov-21 12:33N 43°33' E 010°18'0 0.0
2014-Nov-21 11:33N 43°33' E 010°18'0 0.0
2014-Nov-21 10:33N 43°33' E 010°18'0 0.0
2014-Nov-21 09:30N 43°33' E 010°18'0 0.0
2014-Nov-21 08:32N 43°33' E 010°18'0 0.0
2014-Nov-21 07:32N 43°33' E 010°18'0 0.0
2014-Nov-21 06:33N 43°33' E 010°18'4 4.1
2014-Nov-21 05:33N 43°30' E 010°14'1716.8
2014-Nov-21 04:34N 43°14' E 010°07'13917.4
2014-Nov-20 20:34N 40°57' E 009°39'6 3.0
2014-Nov-20 18:33N 40°55' E 009°31'0 0.0
2014-Nov-20 16:11N 40°55' E 009°31'0 0.0
2014-Nov-20 15:32N 40°55' E 009°31'0 0.0
2014-Nov-20 13:32N 40°55' E 009°31'0 0.0
2014-Nov-20 12:31N 40°55' E 009°31'0 0.0
2014-Nov-20 11:19N 40°55' E 009°31'0 0.0
2014-Nov-20 10:31N 40°55' E 009°31'0 0.0
2014-Nov-20 08:31N 40°55' E 009°31'0 0.0
2014-Nov-20 07:34N 40°55' E 009°31'0 0.0
2014-Nov-20 06:21N 40°55' E 009°31'5 6.8
2014-Nov-20 05:34N 40°57' E 009°38'12217.2
2014-Nov-19 22:29N 42°57' E 010°03'1617.3
2014-Nov-19 21:33N 43°13' E 010°08'1717.3
2014-Nov-19 20:33N 43°30' E 010°13'5 4.7
2014-Nov-19 19:33N 43°33' E 010°18'0 0.0
2014-Nov-19 18:33N 43°33' E 010°18'0 0.0
2014-Nov-19 17:33N 43°33' E 010°18'0 0.0
2014-Nov-19 16:33N 43°33' E 010°18'0 0.0
2014-Nov-19 15:32N 43°33' E 010°18'0 0.0
2014-Nov-19 14:32N 43°33' E 010°18'0 0.0
2014-Nov-19 13:32N 43°33' E 010°18'0 0.0
2014-Nov-19 12:32N 43°33' E 010°18'0 0.0
2014-Nov-19 11:29N 43°33' E 010°18'0 0.0
2014-Nov-19 10:31N 43°33' E 010°18'0 0.0
2014-Nov-19 09:31N 43°33' E 010°18'0 0.0
2014-Nov-19 08:31N 43°33' E 010°18'0 0.0
2014-Nov-19 07:31N 43°33' E 010°18'0 0.0
2014-Nov-19 06:28N 43°33' E 010°18'6 6.7
2014-Nov-19 05:33N 43°29' E 010°12'1817.9
2014-Nov-19 04:33N 43°13' E 009°60'13917.3
2014-Nov-18 20:33N 40°56' E 009°37'4 4.0
2014-Nov-18 19:33N 40°55' E 009°31'0 0.0
2014-Nov-18 18:24N 40°55' E 009°31'0 0.0
2014-Nov-18 17:33N 40°55' E 009°31'0 0.0
2014-Nov-18 15:32N 40°55' E 009°31'0 0.0
2014-Nov-18 14:32N 40°55' E 009°31'0 0.0
2014-Nov-18 13:32N 40°55' E 009°31'0 0.0
2014-Nov-18 12:32N 40°55' E 009°31'0 0.0
2014-Nov-18 11:22N 40°55' E 009°31'0 0.0
2014-Nov-18 10:31N 40°55' E 009°31'0 0.0
2014-Nov-18 09:31N 40°55' E 009°31'0 0.0
2014-Nov-18 08:31N 40°55' E 009°31'0 0.0
2014-Nov-18 07:28N 40°55' E 009°31'0 0.0
2014-Nov-18 06:33N 40°55' E 009°31'5 5.1
2014-Nov-18 05:33N 40°57' E 009°38'12617.4
2014-Nov-17 22:18N 43°02' E 010°00'1418.3
2014-Nov-17 21:34N 43°15' E 010°05'1817.5
2014-Nov-17 20:33N 43°31' E 010°13'4 3.9
2014-Nov-17 19:32N 43°33' E 010°18'0 0.0
2014-Nov-17 18:32N 43°33' E 010°18'0 0.0
2014-Nov-17 17:32N 43°33' E 010°18'0 0.0
2014-Nov-17 16:32N 43°33' E 010°18'0 0.0
2014-Nov-17 15:32N 43°33' E 010°18'0 0.0
2014-Nov-17 14:32N 43°33' E 010°18'0 0.0
2014-Nov-17 13:32N 43°33' E 010°18'0 0.0
2014-Nov-17 12:32N 43°33' E 010°18'0 0.0
2014-Nov-17 11:28N 43°33' E 010°18'0 0.0
2014-Nov-17 10:31N 43°33' E 010°18'0 0.0
2014-Nov-17 09:31N 43°33' E 010°18'0 0.0
2014-Nov-17 08:31N 43°33' E 010°18'0 0.0
2014-Nov-17 07:31N 43°33' E 010°18'0 0.0
2014-Nov-17 06:33N 43°33' E 010°18'1 0.7
2014-Nov-17 05:34N 43°33' E 010°17'1615.9
2014-Nov-17 04:33N 43°19' E 010°06'1817.9
2014-Nov-17 03:33N 43°02' E 009°58'12618.1
2014-Nov-16 20:33N 40°57' E 009°39'  
Track history (hours):
 
Tides and Currents Weather Stations Pressure Air Temp Water Temp Dewpoint Dewpoint Depression Visibility Wind Speed Wind Dir Waves Ship Positions

Moby Aki

Last reported at 2014-Nov-26 20:33 UTC. Time now 2014-Nov-27 01:42 UTC.
Position N 40°56' E 009°36'.

Length 175 m; draft 6.9 m.

Type: Passenger vessel. MMSI: 247132400.

Date/timePositionNaut miles runAvg speedWind from/ knotsBaromVisibWave heightAir tempDewpointWater temp
2014-Nov-26 20:33N 40°56' E 009°36'4 3.7
2014-Nov-26 19:31N 40°55' E 009°31'0 0.0
2014-Nov-26 18:28N 40°55' E 009°31'0 0.0
2014-Nov-26 17:31N 40°55' E 009°31'0 0.0
2014-Nov-26 15:33N 40°55' E 009°31'0 0.0
2014-Nov-26 14:33N 40°55' E 009°31'0 0.0
2014-Nov-26 13:31N 40°55' E 009°31'0 0.0
2014-Nov-26 11:33N 40°55' E 009°31'0 0.0
2014-Nov-26 10:33N 40°55' E 009°31'0 0.0
2014-Nov-26 08:33N 40°55' E 009°31'0 0.0
2014-Nov-26 06:11N 40°55' E 009°31'4 6.3
2014-Nov-26 05:34N 40°56' E 009°36'12817.6
2014-Nov-25 22:17N 43°02' E 010°03'1317.7
2014-Nov-25 21:34N 43°15' E 010°07'1716.9
2014-Nov-25 20:34N 43°31' E 010°14'4 3.9
2014-Nov-25 19:33N 43°33' E 010°18'0 0.0
2014-Nov-25 18:33N 43°33' E 010°18'0 0.0
2014-Nov-25 17:33N 43°33' E 010°18'0 0.0
2014-Nov-25 16:33N 43°33' E 010°18'0 0.0
2014-Nov-25 15:33N 43°33' E 010°18'0 0.0
2014-Nov-25 14:33N 43°33' E 010°18'0 0.0
2014-Nov-25 13:34N 43°33' E 010°18'0 0.0
2014-Nov-25 12:34N 43°33' E 010°18'0 0.0
2014-Nov-25 11:33N 43°33' E 010°18'0 0.0
2014-Nov-25 10:33N 43°33' E 010°18'0 0.0
2014-Nov-25 09:33N 43°33' E 010°18'0 0.0
2014-Nov-25 08:33N 43°33' E 010°18'0 0.0
2014-Nov-25 07:33N 43°33' E 010°18'0 0.0
2014-Nov-25 06:33N 43°33' E 010°18'3 3.4
2014-Nov-25 05:33N 43°31' E 010°15'1717.1
2014-Nov-25 04:33N 43°14' E 010°09'13917.4
2014-Nov-24 20:34N 40°57' E 009°38'5 2.6
2014-Nov-24 18:28N 40°55' E 009°31'0 0.0
2014-Nov-24 16:22N 40°55' E 009°31'0 0.0
2014-Nov-24 15:29N 40°55' E 009°31'0 0.0
2014-Nov-24 13:33N 40°55' E 009°31'0 0.0
2014-Nov-24 09:15N 40°55' E 009°31'0 0.0
2014-Nov-24 08:33N 40°55' E 009°31'0 0.0
2014-Nov-24 06:30N 40°55' E 009°31'5 5.0
2014-Nov-24 05:33N 40°56' E 009°37'12217.3
2014-Nov-23 22:31N 42°57' E 010°02'1717.2
2014-Nov-23 21:34N 43°13' E 010°08'1818.0
2014-Nov-23 20:33N 43°31' E 010°13'4 4.4
2014-Nov-23 19:34N 43°33' E 010°18'0 0.0
2014-Nov-23 18:33N 43°33' E 010°18'0 0.0
2014-Nov-23 17:33N 43°33' E 010°18'0 0.0
2014-Nov-23 16:33N 43°33' E 010°18'0 0.0
2014-Nov-23 15:34N 43°33' E 010°18'0 0.0
2014-Nov-23 14:33N 43°33' E 010°18'0 0.0
2014-Nov-23 13:33N 43°33' E 010°18'0 0.0
2014-Nov-23 12:34N 43°33' E 010°18'0 0.0
2014-Nov-23 11:33N 43°33' E 010°18'0 0.0
2014-Nov-23 10:33N 43°33' E 010°18'0 0.0
2014-Nov-23 09:33N 43°33' E 010°18'0 0.0
2014-Nov-23 08:33N 43°33' E 010°18'0 0.0
2014-Nov-23 07:33N 43°33' E 010°18'0 0.0
2014-Nov-23 06:33N 43°33' E 010°18'4 3.7
2014-Nov-23 05:34N 43°30' E 010°14'1717.3
2014-Nov-23 04:34N 43°14' E 010°08'14017.5
2014-Nov-22 20:33N 40°55' E 009°35'3 1.3
2014-Nov-22 18:31N 40°55' E 009°31'0 0.0
2014-Nov-22 16:16N 40°55' E 009°31'0 0.0
2014-Nov-22 15:31N 40°55' E 009°31'0 0.0
2014-Nov-22 13:33N 40°55' E 009°31'0 0.0
2014-Nov-22 11:24N 40°55' E 009°31'0 0.0
2014-Nov-22 10:33N 40°55' E 009°31'0 0.0
2014-Nov-22 08:32N 40°55' E 009°31'0 0.0
2014-Nov-22 07:27N 40°55' E 009°31'0 0.0
2014-Nov-22 06:33N 40°55' E 009°31'4 4.0
2014-Nov-22 05:33N 40°56' E 009°36'12617.4
2014-Nov-21 22:20N 43°00' E 010°05'1317.2
2014-Nov-21 21:34N 43°14' E 010°08'1717.2
2014-Nov-21 20:34N 43°30' E 010°13'5 4.4
2014-Nov-21 19:32N 43°33' E 010°18'0 0.0
2014-Nov-21 18:32N 43°33' E 010°18'0 0.0
2014-Nov-21 17:31N 43°33' E 010°18'0 0.0
2014-Nov-21 16:31N 43°33' E 010°18'0 0.0
2014-Nov-21 15:31N 43°33' E 010°18'0 0.0
2014-Nov-21 14:31N 43°33' E 010°18'0 0.0
2014-Nov-21 13:33N 43°33' E 010°18'0 0.0
2014-Nov-21 12:33N 43°33' E 010°18'0 0.0
2014-Nov-21 11:33N 43°33' E 010°18'0 0.0
2014-Nov-21 10:33N 43°33' E 010°18'0 0.0
2014-Nov-21 09:30N 43°33' E 010°18'0 0.0
2014-Nov-21 08:32N 43°33' E 010°18'0 0.0
2014-Nov-21 07:32N 43°33' E 010°18'0 0.0
2014-Nov-21 06:33N 43°33' E 010°18'4 4.1
2014-Nov-21 05:33N 43°30' E 010°14'1716.8
2014-Nov-21 04:34N 43°14' E 010°07'13917.4
2014-Nov-20 20:34N 40°57' E 009°39'6 3.0
2014-Nov-20 18:33N 40°55' E 009°31'0 0.0
2014-Nov-20 16:11N 40°55' E 009°31'0 0.0
2014-Nov-20 15:32N 40°55' E 009°31'0 0.0
2014-Nov-20 13:32N 40°55' E 009°31'0 0.0
2014-Nov-20 12:31N 40°55' E 009°31'0 0.0
2014-Nov-20 11:19N 40°55' E 009°31'0 0.0
2014-Nov-20 10:31N 40°55' E 009°31'0 0.0
2014-Nov-20 08:31N 40°55' E 009°31'0 0.0
2014-Nov-20 07:34N 40°55' E 009°31'0 0.0
2014-Nov-20 06:21N 40°55' E 009°31'5 6.8
2014-Nov-20 05:34N 40°57' E 009°38'12217.2
2014-Nov-19 22:29N 42°57' E 010°03'1617.3
2014-Nov-19 21:33N 43°13' E 010°08'1717.3
2014-Nov-19 20:33N 43°30' E 010°13'5 4.7
2014-Nov-19 19:33N 43°33' E 010°18'0 0.0
2014-Nov-19 18:33N 43°33' E 010°18'0 0.0
2014-Nov-19 17:33N 43°33' E 010°18'0 0.0
2014-Nov-19 16:33N 43°33' E 010°18'0 0.0
2014-Nov-19 15:32N 43°33' E 010°18'0 0.0
2014-Nov-19 14:32N 43°33' E 010°18'0 0.0
2014-Nov-19 13:32N 43°33' E 010°18'0 0.0
2014-Nov-19 12:32N 43°33' E 010°18'0 0.0
2014-Nov-19 11:29N 43°33' E 010°18'0 0.0
2014-Nov-19 10:31N 43°33' E 010°18'0 0.0
2014-Nov-19 09:31N 43°33' E 010°18'0 0.0
2014-Nov-19 08:31N 43°33' E 010°18'0 0.0
2014-Nov-19 07:31N 43°33' E 010°18'0 0.0
2014-Nov-19 06:28N 43°33' E 010°18'6 6.7
2014-Nov-19 05:33N 43°29' E 010°12'1817.9
2014-Nov-19 04:33N 43°13' E 009°60'13917.3
2014-Nov-18 20:33N 40°56' E 009°37'4 4.0
2014-Nov-18 19:33N 40°55' E 009°31'0 0.0
2014-Nov-18 18:24N 40°55' E 009°31'0 0.0
2014-Nov-18 17:33N 40°55' E 009°31'0 0.0
2014-Nov-18 15:32N 40°55' E 009°31'0 0.0
2014-Nov-18 14:32N 40°55' E 009°31'0 0.0
2014-Nov-18 13:32N 40°55' E 009°31'0 0.0
2014-Nov-18 12:32N 40°55' E 009°31'0 0.0
2014-Nov-18 11:22N 40°55' E 009°31'0 0.0
2014-Nov-18 10:31N 40°55' E 009°31'0 0.0
2014-Nov-18 09:31N 40°55' E 009°31'0 0.0
2014-Nov-18 08:31N 40°55' E 009°31'0 0.0
2014-Nov-18 07:28N 40°55' E 009°31'0 0.0
2014-Nov-18 06:33N 40°55' E 009°31'5 5.1
2014-Nov-18 05:33N 40°57' E 009°38'12617.4
2014-Nov-17 22:18N 43°02' E 010°00'1418.3
2014-Nov-17 21:34N 43°15' E 010°05'1817.5
2014-Nov-17 20:33N 43°31' E 010°13'4 3.9
2014-Nov-17 19:32N 43°33' E 010°18'0 0.0
2014-Nov-17 18:32N 43°33' E 010°18'0 0.0
2014-Nov-17 17:32N 43°33' E 010°18'0 0.0
2014-Nov-17 16:32N 43°33' E 010°18'0 0.0
2014-Nov-17 15:32N 43°33' E 010°18'0 0.0
2014-Nov-17 14:32N 43°33' E 010°18'0 0.0
2014-Nov-17 13:32N 43°33' E 010°18'0 0.0
2014-Nov-17 12:32N 43°33' E 010°18'0 0.0
2014-Nov-17 11:28N 43°33' E 010°18'0 0.0
2014-Nov-17 10:31N 43°33' E 010°18'0 0.0
2014-Nov-17 09:31N 43°33' E 010°18'0 0.0
2014-Nov-17 08:31N 43°33' E 010°18'0 0.0
2014-Nov-17 07:31N 43°33' E 010°18'0 0.0
2014-Nov-17 06:33N 43°33' E 010°18'1 0.7
2014-Nov-17 05:34N 43°33' E 010°17'1615.9
2014-Nov-17 04:33N 43°19' E 010°06'1817.9
2014-Nov-17 03:33N 43°02' E 009°58'12618.1
2014-Nov-16 20:33N 40°57' E 009°39'  

Dump ship's entire track history